createdAt,value
2018-07-23T00:00:55.229Z,42.63
2018-07-23T00:05:51.913Z,43.80
2018-07-23T00:10:49.106Z,39.43
2018-07-23T00:15:46.121Z,44.37
2018-07-23T00:20:42.806Z,48.03
2018-07-23T00:25:39.787Z,46.33
2018-07-23T00:30:36.475Z,46.53
2018-07-23T00:35:33.378Z,47.17
2018-07-23T00:40:31.008Z,46.30
2018-07-23T00:45:27.787Z,47.33
2018-07-23T00:50:24.726Z,47.10
2018-07-23T00:55:21.516Z,44.97
2018-07-23T01:00:18.735Z,46.83
2018-07-23T01:05:15.444Z,46.70
2018-07-23T01:10:12.421Z,45.50
2018-07-23T01:15:09.141Z,45.53
2018-07-23T01:20:06.355Z,46.30
2018-07-23T01:25:03.378Z,47.47
2018-07-23T01:30:00.294Z,46.83
2018-07-23T01:34:57.282Z,46.53
2018-07-23T01:39:54.973Z,46.60
2018-07-23T01:44:51.893Z,45.83
2018-07-23T01:49:48.931Z,44.40
2018-07-23T01:54:45.633Z,44.97
2018-07-23T01:59:42.547Z,45.83
2018-07-23T02:04:39.850Z,48.80
2018-07-23T02:09:36.544Z,42.87
2018-07-23T02:14:33.448Z,47.10
2018-07-23T02:19:30.367Z,49.83
2018-07-23T02:24:27.473Z,46.93
2018-07-23T02:29:24.218Z,48.73
2018-07-23T02:34:21.201Z,45.97
2018-07-23T02:39:18.317Z,47.07
2018-07-23T02:44:15.485Z,44.80
2018-07-23T02:49:12.514Z,47.27
2018-07-23T02:54:09.250Z,44.97
2018-07-23T02:59:06.309Z,44.43
2018-07-23T03:04:03.071Z,46.93
2018-07-23T03:09:00.005Z,45.77
2018-07-23T03:13:56.846Z,45.13
2018-07-23T03:18:53.610Z,47.90
2018-07-23T03:23:50.557Z,45.07
2018-07-23T03:28:47.301Z,47.10
2018-07-23T03:33:44.201Z,47.93
2018-07-23T03:38:40.968Z,48.77
2018-07-23T03:43:37.522Z,45.97
2018-07-23T03:48:34.309Z,45.87
2018-07-23T03:53:31.153Z,43.43
2018-07-23T03:58:27.885Z,46.10
2018-07-23T04:03:24.934Z,44.40
2018-07-23T04:08:21.868Z,43.87
2018-07-23T04:13:18.871Z,43.67
2018-07-23T04:18:15.626Z,43.13
2018-07-23T04:23:12.448Z,45.33
2018-07-23T04:28:09.166Z,43.70
2018-07-23T04:33:06.155Z,42.80
2018-07-23T04:38:03.157Z,43.77
2018-07-23T04:42:59.869Z,42.67
2018-07-23T04:47:57.665Z,44.20
2018-07-23T04:52:54.385Z,45.63
2018-07-23T04:57:51.540Z,43.23
2018-07-23T05:02:48.267Z,42.17
2018-07-23T05:07:45.445Z,42.37
2018-07-23T05:12:42.318Z,41.90
2018-07-23T05:17:39.200Z,42.83
2018-07-23T05:22:35.882Z,39.73
2018-07-23T05:27:32.828Z,40.90
2018-07-23T05:32:29.511Z,42.13
2018-07-23T05:37:26.675Z,40.23
2018-07-23T05:42:23.418Z,39.27
2018-07-23T05:47:20.506Z,40.40
2018-07-23T05:52:17.222Z,40.90
2018-07-23T05:57:14.156Z,41.90
2018-07-23T06:02:11.628Z,42.70
2018-07-23T06:07:08.357Z,42.07
2018-07-23T06:12:05.429Z,44.33
2018-07-23T06:17:02.220Z,40.47
2018-07-23T06:21:59.164Z,42.07
2018-07-23T06:26:55.847Z,41.03
2018-07-23T06:31:52.997Z,40.43
2018-07-23T06:36:49.743Z,39.53
2018-07-23T06:41:46.781Z,40.60
2018-07-23T06:46:43.953Z,36.40
2018-07-23T06:51:41.021Z,34.87
2018-07-23T06:56:37.940Z,31.17
2018-07-23T07:01:34.875Z,31.97
2018-07-23T07:06:31.778Z,33.53
2018-07-23T07:11:28.986Z,29.40
2018-07-23T07:16:25.705Z,26.90
2018-07-23T07:21:22.867Z,24.43
2018-07-23T07:26:19.540Z,25.85
2018-07-23T07:31:16.724Z,22.85
2018-07-23T07:36:13.640Z,22.07
2018-07-23T07:41:10.583Z,20.40
2018-07-23T07:46:07.373Z,20.72
2018-07-23T07:51:04.281Z,20.52
2018-07-23T07:56:02.345Z,21.57
2018-07-23T08:00:59.315Z,19.30
2018-07-23T08:05:56.079Z,17.50
2018-07-23T08:10:53.047Z,16.65
2018-07-23T08:15:50.036Z,13.58
2018-07-23T08:20:46.997Z,13.45
2018-07-23T08:25:43.901Z,14.13
2018-07-23T08:30:40.838Z,15.70
2018-07-23T08:35:37.558Z,17.50
2018-07-23T08:40:34.502Z,15.08
2018-07-23T08:45:31.171Z,14.45
2018-07-23T08:50:28.136Z,14.20
2018-07-23T08:55:25.153Z,13.20
2018-07-23T09:00:24.418Z,13.28
2018-07-23T09:05:21.391Z,11.12
2018-07-23T09:10:18.293Z,10.05
2018-07-23T09:15:15.550Z,10.18
2018-07-23T09:20:12.577Z,10.95
2018-07-23T09:25:09.481Z,8.90
2018-07-23T09:30:09.175Z,8.88
2018-07-23T09:35:06.160Z,8.60
2018-07-23T09:40:02.885Z,9.63
2018-07-23T09:44:59.821Z,8.18
2018-07-23T09:49:56.665Z,10.65
2018-07-23T09:54:53.495Z,10.18
2018-07-23T09:59:50.445Z,9.85
2018-07-23T10:04:47.119Z,11.38
2018-07-23T10:09:43.966Z,11.65
2018-07-23T10:14:41.910Z,9.78
2018-07-23T10:19:38.722Z,12.30
2018-07-23T10:24:35.663Z,9.30
2018-07-23T10:29:32.812Z,9.48
2018-07-23T10:34:29.465Z,9.95
2018-07-23T10:39:26.451Z,11.00
2018-07-23T10:44:23.128Z,10.25
2018-07-23T10:49:20.330Z,9.70
2018-07-23T10:54:17.204Z,8.95
2018-07-23T10:59:14.173Z,8.13
2018-07-23T11:04:10.885Z,7.47
2018-07-23T11:09:07.776Z,6.92
2018-07-23T11:14:04.702Z,6.53
2018-07-23T11:19:02.108Z,6.70
2018-07-23T11:23:59.039Z,6.15
2018-07-23T11:28:55.978Z,5.75
2018-07-23T11:33:52.754Z,4.97
2018-07-23T11:38:49.842Z,5.60
2018-07-23T11:43:46.525Z,5.47
2018-07-23T11:48:43.493Z,5.37
2018-07-23T11:53:40.496Z,5.42
2018-07-23T11:58:37.194Z,5.50
2018-07-23T12:03:34.252Z,8.30
2018-07-23T12:08:31.448Z,18.85
2018-07-23T12:13:28.387Z,7.50
2018-07-23T12:18:26.236Z,6.15
2018-07-23T12:23:23.177Z,6.15
2018-07-23T12:28:19.957Z,6.53
2018-07-23T12:33:16.856Z,5.20
2018-07-23T12:38:13.982Z,4.95
2018-07-23T12:43:10.720Z,6.08
2018-07-23T12:48:07.764Z,5.10
2018-07-23T12:53:04.429Z,6.08
2018-07-23T12:58:02.304Z,6.03
2018-07-23T13:02:59.098Z,5.97
2018-07-23T13:07:55.841Z,6.67
2018-07-23T13:12:52.656Z,9.33
2018-07-23T13:17:49.727Z,7.62
2018-07-23T13:22:46.733Z,7.92
2018-07-23T13:27:43.733Z,6.17
2018-07-23T13:32:41.133Z,5.80
2018-07-23T13:37:37.983Z,5.87
2018-07-23T13:42:34.915Z,7.08
2018-07-23T13:47:31.944Z,5.50
2018-07-23T13:52:29.014Z,5.72
2018-07-23T13:57:25.925Z,5.78
2018-07-23T14:02:22.886Z,5.83
2018-07-23T14:07:20.037Z,5.37
2018-07-23T14:12:16.737Z,5.65
2018-07-23T14:17:13.620Z,6.60
2018-07-23T14:22:10.391Z,8.03
2018-07-23T14:27:07.550Z,8.55
2018-07-23T14:32:04.445Z,7.33
2018-07-23T14:37:02.269Z,7.47
2018-07-23T14:41:59.046Z,7.37
2018-07-23T14:46:56.577Z,7.20
2018-07-23T14:51:53.321Z,13.60
2018-07-23T14:56:50.308Z,7.15
2018-07-23T15:01:47.102Z,23.30
2018-07-23T15:06:44.065Z,7.90
2018-07-23T15:11:40.978Z,7.05
2018-07-23T15:16:37.796Z,7.33
2018-07-23T15:21:34.717Z,10.80
2018-07-23T15:26:31.610Z,7.47
2018-07-23T15:31:28.406Z,7.10
2018-07-23T15:36:25.350Z,6.70
2018-07-23T15:41:22.377Z,7.62
2018-07-23T15:46:19.417Z,7.28
2018-07-23T15:51:16.468Z,6.90
2018-07-23T15:56:13.286Z,13.35
2018-07-23T16:01:10.284Z,10.85
2018-07-23T16:06:06.974Z,8.65
2018-07-23T16:11:03.788Z,8.03
2018-07-23T16:16:00.850Z,8.40
2018-07-23T16:20:57.744Z,7.75
2018-07-23T16:25:54.493Z,8.25
2018-07-23T16:30:51.488Z,9.30
2018-07-23T16:35:48.384Z,8.73
2018-07-23T16:40:45.136Z,8.98
2018-07-23T16:45:43.294Z,12.98
2018-07-23T16:50:39.972Z,8.53
2018-07-23T16:55:37.294Z,7.90
2018-07-23T17:00:34.159Z,8.38
2018-07-23T17:05:31.127Z,11.08
2018-07-23T17:10:27.800Z,8.08
2018-07-23T17:15:24.801Z,7.85
2018-07-23T17:20:21.599Z,7.72
2018-07-23T17:25:18.713Z,8.05
2018-07-23T17:30:15.520Z,8.53
2018-07-23T17:35:12.642Z,8.43
2018-07-23T17:40:09.646Z,7.58
2018-07-23T17:45:06.467Z,8.20
2018-07-23T17:50:03.505Z,8.78
2018-07-23T17:55:00.858Z,8.10
2018-07-23T17:59:57.604Z,9.53
2018-07-23T18:04:54.565Z,9.15
2018-07-23T18:09:52.351Z,10.18
2018-07-23T18:14:49.272Z,10.05
2018-07-23T18:19:45.960Z,9.60
2018-07-23T18:24:42.909Z,9.65
2018-07-23T18:29:39.875Z,10.48
2018-07-23T18:34:36.588Z,11.80
2018-07-23T18:39:33.482Z,11.05
2018-07-23T18:44:30.674Z,13.05
2018-07-23T18:49:41.674Z,10.95
2018-07-23T18:54:39.088Z,12.30
2018-07-23T18:59:35.867Z,12.35
2018-07-23T19:04:32.735Z,14.75
2018-07-23T19:09:29.962Z,13.10
2018-07-23T19:14:27.504Z,12.82
2018-07-23T19:19:24.653Z,13.72
2018-07-23T19:24:21.374Z,13.80
2018-07-23T19:29:18.282Z,13.00
2018-07-23T19:34:15.150Z,19.07
2018-07-23T19:39:13.461Z,15.38
2018-07-23T19:44:10.614Z,17.00
2018-07-23T19:49:07.937Z,14.00
2018-07-23T19:54:05.303Z,14.68
2018-07-23T19:59:02.121Z,15.08
2018-07-23T20:03:59.143Z,15.45
2018-07-23T20:08:56.818Z,16.80
2018-07-23T20:13:53.843Z,16.23
2018-07-23T20:18:50.618Z,16.12
2018-07-23T20:23:47.758Z,16.40
2018-07-23T20:28:44.528Z,16.32
2018-07-23T20:33:41.376Z,17.12
2018-07-23T20:38:38.292Z,18.65
2018-07-23T20:43:35.117Z,18.60
2018-07-23T20:48:31.963Z,17.92
2018-07-23T20:53:28.747Z,18.73
2018-07-23T20:58:25.676Z,18.23
2018-07-23T21:03:22.614Z,18.87
2018-07-23T21:08:19.515Z,19.95
2018-07-23T21:13:16.952Z,21.45
2018-07-23T21:18:13.747Z,20.57
2018-07-23T21:23:10.583Z,19.77
2018-07-23T21:28:07.513Z,20.23
2018-07-23T21:33:04.340Z,18.87
2018-07-23T21:38:01.297Z,20.85
2018-07-23T21:42:58.320Z,20.60
2018-07-23T21:47:55.336Z,23.00
2018-07-23T21:52:51.995Z,20.27
2018-07-23T21:57:48.928Z,22.67
2018-07-23T22:02:45.694Z,22.77
2018-07-23T22:07:42.602Z,23.27
2018-07-23T22:12:39.069Z,23.85
2018-07-23T22:17:35.762Z,23.80
2018-07-23T22:22:32.717Z,23.55
2018-07-23T22:27:29.430Z,24.10
2018-07-23T22:32:26.555Z,24.45
2018-07-23T22:37:23.286Z,24.45
2018-07-23T22:42:20.476Z,23.57
2018-07-23T22:47:17.386Z,23.75
2018-07-23T22:52:14.210Z,25.20
2018-07-23T22:57:11.359Z,26.52
2018-07-23T23:02:08.056Z,25.70
2018-07-23T23:07:04.970Z,26.77
2018-07-23T23:12:02.066Z,25.23
2018-07-23T23:16:59.299Z,25.83
2018-07-23T23:21:56.357Z,27.77
2018-07-23T23:26:53.344Z,28.00
2018-07-23T23:31:50.139Z,29.17
2018-07-23T23:36:47.028Z,27.90
2018-07-23T23:41:43.735Z,27.43
2018-07-23T23:46:40.628Z,27.63
2018-07-23T23:51:37.452Z,28.85
2018-07-23T23:56:34.358Z,28.20
